createdAt,value
2019-05-22T00:01:41.607Z,12.81
2019-05-22T00:04:27.986Z,12.94
2019-05-22T00:07:06.324Z,12.99
2019-05-22T00:09:42.534Z,12.88
2019-05-22T00:12:19.327Z,12.84
2019-05-22T00:14:54.556Z,12.81
2019-05-22T00:17:34.351Z,12.82
2019-05-22T00:20:10.728Z,12.78
2019-05-22T00:22:47.636Z,12.81
2019-05-22T00:25:25.032Z,12.70
2019-05-22T00:28:00.619Z,12.74
2019-05-22T00:30:39.460Z,12.74
2019-05-22T00:33:14.556Z,12.70
2019-05-22T00:35:50.141Z,12.68
2019-05-22T00:38:27.308Z,12.64
2019-05-22T00:41:08.063Z,12.59
2019-05-22T00:43:44.784Z,12.51
2019-05-22T00:46:20.806Z,12.56
2019-05-22T00:48:57.849Z,12.47
2019-05-22T00:51:49.633Z,12.51
2019-05-22T00:54:45.405Z,12.53
2019-05-22T00:57:27.093Z,12.45
2019-05-22T01:00:19.933Z,12.52
2019-05-22T01:02:56.420Z,12.46
2019-05-22T01:05:31.371Z,12.59
2019-05-22T01:08:08.717Z,12.49
2019-05-22T01:10:49.965Z,12.50
2019-05-22T01:13:26.316Z,12.51
2019-05-22T01:16:02.073Z,12.48
2019-05-22T01:18:38.645Z,12.47
2019-05-22T01:21:22.033Z,12.57
2019-05-22T01:24:00.645Z,12.58
2019-05-22T01:26:36.342Z,12.60
2019-05-22T01:29:12.048Z,12.50
2019-05-22T01:31:54.046Z,12.50
2019-05-22T01:34:35.521Z,12.47
2019-05-22T01:37:14.868Z,12.48
2019-05-22T01:40:02.379Z,12.47
2019-05-22T01:42:43.247Z,12.51
2019-05-22T01:45:18.776Z,12.37
2019-05-22T01:48:02.967Z,12.43
2019-05-22T01:50:55.785Z,12.36
2019-05-22T01:53:38.786Z,12.52
2019-05-22T01:56:16.517Z,12.40
2019-05-22T01:58:52.830Z,12.28
2019-05-22T02:01:27.537Z,12.35
2019-05-22T02:04:02.437Z,12.34
2019-05-22T02:06:39.608Z,12.31
2019-05-22T02:09:41.271Z,12.36
2019-05-22T02:12:31.914Z,12.39
2019-05-22T02:15:08.012Z,12.38
2019-05-22T02:17:42.956Z,12.31
2019-05-22T02:20:20.151Z,12.20
2019-05-22T02:22:54.755Z,12.35
2019-05-22T02:25:29.264Z,12.26
2019-05-22T02:28:04.213Z,12.25
2019-05-22T02:30:40.739Z,12.23
2019-05-22T02:33:18.679Z,12.23
2019-05-22T02:35:54.227Z,12.15
2019-05-22T02:38:29.799Z,12.33
2019-05-22T02:41:04.829Z,12.20
2019-05-22T02:43:39.632Z,12.23
2019-05-22T02:46:14.602Z,12.20
2019-05-22T02:48:49.331Z,12.17
2019-05-22T02:51:23.074Z,12.22
2019-05-22T02:54:00.687Z,12.19
2019-05-22T02:56:36.345Z,12.10
2019-05-22T02:59:13.957Z,12.01
2019-05-22T03:01:48.496Z,12.00
2019-05-22T03:04:23.529Z,11.97
2019-05-22T03:06:57.324Z,11.96
2019-05-22T03:09:34.114Z,11.96
2019-05-22T03:12:12.198Z,11.92
2019-05-22T03:14:47.750Z,11.85
2019-05-22T03:17:33.752Z,11.95
2019-05-22T03:20:13.893Z,12.01
2019-05-22T03:23:03.485Z,11.94
2019-05-22T03:25:38.677Z,12.00
2019-05-22T03:28:14.379Z,11.91
2019-05-22T03:30:50.328Z,11.94
2019-05-22T03:33:26.523Z,11.84
2019-05-22T03:36:18.325Z,11.91
2019-05-22T03:38:55.713Z,12.03
2019-05-22T03:41:30.258Z,11.87
2019-05-22T03:44:07.411Z,11.89
2019-05-22T03:46:48.349Z,11.94
2019-05-22T03:49:30.581Z,11.91
2019-05-22T03:51:59.765Z,11.87
2019-05-22T03:54:36.640Z,11.93
2019-05-22T03:57:12.522Z,11.83
2019-05-22T03:59:46.503Z,11.93
2019-05-22T04:02:23.075Z,11.93
2019-05-22T04:04:58.639Z,11.84
2019-05-22T04:07:33.634Z,11.77
2019-05-22T04:10:09.793Z,11.84
2019-05-22T04:12:44.646Z,11.82
2019-05-22T04:15:20.920Z,11.83
2019-05-22T04:17:59.426Z,11.77
2019-05-22T04:20:34.019Z,11.77
2019-05-22T04:23:10.226Z,11.86
2019-05-22T04:25:44.696Z,11.84
2019-05-22T04:28:18.875Z,11.82
2019-05-22T04:30:55.115Z,11.90
2019-05-22T04:33:31.257Z,11.90
2019-05-22T04:36:10.097Z,12.00
2019-05-22T04:38:44.225Z,11.91
2019-05-22T04:41:18.873Z,11.94
2019-05-22T04:43:52.702Z,12.03
2019-05-22T04:46:28.522Z,11.89
2019-05-22T04:49:03.402Z,11.96
2019-05-22T04:51:39.204Z,12.03
2019-05-22T04:54:14.138Z,12.11
2019-05-22T04:56:52.100Z,12.06
2019-05-22T04:59:28.437Z,12.13
2019-05-22T05:02:05.482Z,12.09
2019-05-22T05:04:40.100Z,12.07
2019-05-22T05:07:15.082Z,12.10
2019-05-22T05:09:49.294Z,11.99
2019-05-22T05:12:23.500Z,12.03
2019-05-22T05:14:59.545Z,12.06
2019-05-22T05:17:33.452Z,12.12
2019-05-22T05:20:21.687Z,12.16
2019-05-22T05:22:45.811Z,12.08
2019-05-22T05:25:22.700Z,12.12
2019-05-22T05:27:59.304Z,12.08
2019-05-22T05:30:34.414Z,12.08
2019-05-22T05:33:08.681Z,11.92
2019-05-22T05:35:42.672Z,11.92
2019-05-22T05:38:18.456Z,11.92
2019-05-22T05:40:53.616Z,12.07
2019-05-22T05:43:29.336Z,12.05
2019-05-22T05:46:03.789Z,12.17
2019-05-22T05:48:40.312Z,12.09
2019-05-22T05:51:27.946Z,12.19
2019-05-22T05:54:11.601Z,12.23
2019-05-22T05:56:51.647Z,12.24
2019-05-22T05:59:27.875Z,12.25
2019-05-22T06:02:02.208Z,12.29
2019-05-22T06:04:39.940Z,12.23
2019-05-22T06:07:39.678Z,12.24
2019-05-22T06:11:14.962Z,12.27
2019-05-22T06:13:49.044Z,12.29
2019-05-22T06:17:26.509Z,12.22
2019-05-22T06:20:04.365Z,12.03
2019-05-22T06:22:39.233Z,12.09
2019-05-22T06:25:14.417Z,12.29
2019-05-22T06:27:53.812Z,12.16
2019-05-22T06:30:46.777Z,12.25
2019-05-22T06:33:46.759Z,12.23
2019-05-22T06:36:22.814Z,12.35
2019-05-22T06:39:07.884Z,12.22
2019-05-22T06:41:43.962Z,12.26
2019-05-22T06:44:37.819Z,12.26
2019-05-22T06:47:23.796Z,12.15
2019-05-22T06:49:58.731Z,12.28
2019-05-22T06:52:32.900Z,12.14
2019-05-22T06:55:07.643Z,12.17
2019-05-22T06:57:42.606Z,12.31
2019-05-22T07:00:25.251Z,12.27
2019-05-22T07:02:59.579Z,12.40
2019-05-22T07:05:34.053Z,12.41
2019-05-22T07:08:10.701Z,12.33
2019-05-22T07:10:45.019Z,12.44
2019-05-22T07:13:20.079Z,12.48
2019-05-22T07:15:55.700Z,12.65
2019-05-22T07:18:32.356Z,12.71
2019-05-22T07:21:08.109Z,12.91
2019-05-22T07:23:42.190Z,13.26
2019-05-22T07:26:16.385Z,13.20
2019-05-22T07:28:50.820Z,13.15
2019-05-22T07:31:25.662Z,13.04
2019-05-22T07:33:59.810Z,12.86
2019-05-22T07:36:37.553Z,12.97
2019-05-22T07:39:12.206Z,12.98
2019-05-22T07:41:47.447Z,12.93
2019-05-22T07:44:22.466Z,13.04
2019-05-22T07:46:58.217Z,12.80
2019-05-22T07:49:32.493Z,12.83
2019-05-22T07:52:08.068Z,12.87
2019-05-22T07:54:43.834Z,12.80
2019-05-22T07:57:23.173Z,12.73
2019-05-22T07:59:58.473Z,12.79
2019-05-22T08:02:41.546Z,13.01
2019-05-22T08:05:16.952Z,13.18
2019-05-22T08:07:51.916Z,13.13
2019-05-22T08:10:31.142Z,13.22
2019-05-22T08:13:05.158Z,13.15
2019-05-22T08:15:39.336Z,13.20
2019-05-22T08:18:15.507Z,13.10
2019-05-22T08:20:49.710Z,13.17
2019-05-22T08:23:25.919Z,13.12
2019-05-22T08:26:00.811Z,13.38
2019-05-22T08:28:37.029Z,13.45
2019-05-22T08:31:16.340Z,13.46
2019-05-22T08:33:51.004Z,13.33
2019-05-22T08:36:25.848Z,13.10
2019-05-22T08:39:04.260Z,13.20
2019-05-22T08:41:44.041Z,13.17
2019-05-22T08:44:18.606Z,13.17
2019-05-22T08:46:54.195Z,13.01
2019-05-22T08:49:28.111Z,13.15
2019-05-22T08:52:02.207Z,12.80
2019-05-22T08:54:37.522Z,12.72
2019-05-22T08:57:14.023Z,12.61
2019-05-22T08:59:48.497Z,12.62
2019-05-22T09:02:23.434Z,12.57
2019-05-22T09:04:59.348Z,12.73
2019-05-22T09:07:33.275Z,12.70
2019-05-22T09:10:09.838Z,12.81
2019-05-22T09:12:43.977Z,12.79
2019-05-22T09:15:18.504Z,12.75
2019-05-22T09:17:52.575Z,12.79
2019-05-22T09:20:26.951Z,12.79
2019-05-22T09:23:02.231Z,12.79
2019-05-22T09:25:36.452Z,12.76
2019-05-22T09:28:11.231Z,12.73
2019-05-22T09:30:45.319Z,12.58
2019-05-22T09:33:19.727Z,12.59
2019-05-22T09:35:54.809Z,12.63
2019-05-22T09:38:29.824Z,12.47
2019-05-22T09:41:04.432Z,12.49
2019-05-22T09:43:39.313Z,12.37
2019-05-22T09:46:14.047Z,12.36
2019-05-22T09:48:47.950Z,12.47
2019-05-22T09:51:22.200Z,12.57
2019-05-22T09:53:58.478Z,12.50
2019-05-22T09:56:34.245Z,12.59
2019-05-22T09:59:08.724Z,12.62
2019-05-22T10:01:43.577Z,12.60
2019-05-22T10:04:17.329Z,12.66
2019-05-22T10:06:51.991Z,12.69
2019-05-22T10:09:26.874Z,12.64
2019-05-22T10:12:01.411Z,12.84
2019-05-22T10:14:36.361Z,13.20
2019-05-22T10:17:13.200Z,13.22
2019-05-22T10:19:49.485Z,13.28
2019-05-22T10:22:24.619Z,13.60
2019-05-22T10:25:15.074Z,13.52
2019-05-22T10:27:34.877Z,13.65
2019-05-22T10:30:12.164Z,13.61
2019-05-22T10:32:47.879Z,13.51
2019-05-22T10:35:25.571Z,13.45
2019-05-22T10:37:59.658Z,13.34
2019-05-22T10:40:34.265Z,13.23
2019-05-22T10:43:08.723Z,13.10
2019-05-22T10:45:46.109Z,13.15
2019-05-22T10:48:21.349Z,13.10
2019-05-22T10:50:56.214Z,13.27
2019-05-22T10:53:34.119Z,13.46
2019-05-22T10:56:09.173Z,13.41
2019-05-22T10:58:45.014Z,13.58
2019-05-22T11:01:19.420Z,13.62
2019-05-22T11:03:53.918Z,13.70
2019-05-22T11:06:28.344Z,13.83
2019-05-22T11:09:02.406Z,13.70
2019-05-22T11:11:38.264Z,13.53
2019-05-22T11:14:14.320Z,13.55
2019-05-22T11:16:50.320Z,13.56
2019-05-22T11:19:24.856Z,13.59
2019-05-22T11:21:59.095Z,13.69
2019-05-22T11:24:33.000Z,13.95
2019-05-22T11:27:07.101Z,13.83
2019-05-22T11:29:42.126Z,13.77
2019-05-22T11:32:18.393Z,13.65
2019-05-22T11:34:53.269Z,13.72
2019-05-22T11:37:26.981Z,13.73
2019-05-22T11:40:01.594Z,13.90
2019-05-22T11:42:35.724Z,14.62
2019-05-22T11:45:12.459Z,15.12
2019-05-22T11:47:46.356Z,15.41
2019-05-22T11:50:22.505Z,15.34
2019-05-22T11:52:56.261Z,15.25
2019-05-22T11:55:43.666Z,14.96
2019-05-22T11:58:08.570Z,14.91
2019-05-22T12:00:44.735Z,14.99
2019-05-22T12:03:20.977Z,14.86
2019-05-22T12:05:56.533Z,14.89
2019-05-22T12:08:32.080Z,14.78
2019-05-22T12:11:07.476Z,14.84
2019-05-22T12:13:42.958Z,14.96
2019-05-22T12:16:17.189Z,14.85
2019-05-22T12:18:51.216Z,15.20
2019-05-22T12:21:26.588Z,15.31
2019-05-22T12:24:00.536Z,15.56
2019-05-22T12:26:34.483Z,15.89
2019-05-22T12:29:08.466Z,16.12
2019-05-22T12:31:43.955Z,16.06
2019-05-22T12:34:20.068Z,16.19
2019-05-22T12:36:55.173Z,16.16
2019-05-22T12:39:30.549Z,16.26
2019-05-22T12:42:06.209Z,16.11
2019-05-22T12:44:40.096Z,16.18
2019-05-22T12:47:15.620Z,15.96
2019-05-22T12:49:50.027Z,15.97
2019-05-22T12:52:24.944Z,15.82
2019-05-22T12:55:00.462Z,16.17
2019-05-22T12:57:35.425Z,16.14
2019-05-22T13:00:11.377Z,16.24
2019-05-22T13:02:48.731Z,16.24
2019-05-22T13:05:24.011Z,15.92
2019-05-22T13:07:58.901Z,15.65
2019-05-22T13:10:34.257Z,16.11
2019-05-22T13:13:09.939Z,15.88
2019-05-22T13:15:44.402Z,15.94
2019-05-22T13:18:24.687Z,15.99
2019-05-22T13:20:58.971Z,15.97
2019-05-22T13:23:39.597Z,15.71
2019-05-22T13:26:13.634Z,15.99
2019-05-22T13:28:50.253Z,16.03
2019-05-22T13:31:24.310Z,15.98
2019-05-22T13:33:59.488Z,16.38
2019-05-22T13:36:33.805Z,16.31
2019-05-22T13:39:09.905Z,16.36
2019-05-22T13:41:44.110Z,16.43
2019-05-22T13:44:18.862Z,16.53
2019-05-22T13:46:53.558Z,16.74
2019-05-22T13:49:30.882Z,16.93
2019-05-22T13:52:06.233Z,16.85
2019-05-22T13:54:41.018Z,16.85
2019-05-22T13:57:16.538Z,17.16
2019-05-22T13:59:50.904Z,16.91
2019-05-22T14:02:28.058Z,16.97
2019-05-22T14:05:02.514Z,17.47
2019-05-22T14:07:36.716Z,17.22
2019-05-22T14:10:11.677Z,17.28
2019-05-22T14:12:48.077Z,17.14
2019-05-22T14:15:24.289Z,17.20
2019-05-22T14:17:59.250Z,17.25
2019-05-22T14:20:33.103Z,17.26
2019-05-22T14:23:07.377Z,17.23
2019-05-22T14:25:44.137Z,17.00
2019-05-22T14:28:19.788Z,17.25
2019-05-22T14:30:54.359Z,17.46
2019-05-22T14:33:29.856Z,17.33
2019-05-22T14:36:06.139Z,17.47
2019-05-22T14:38:41.899Z,17.54
2019-05-22T14:41:16.776Z,17.44
2019-05-22T14:43:50.508Z,17.42
2019-05-22T14:46:24.476Z,17.49
2019-05-22T14:48:58.638Z,17.38
2019-05-22T14:51:33.280Z,17.60
2019-05-22T14:54:08.294Z,17.33
2019-05-22T14:56:44.046Z,17.31
2019-05-22T14:59:19.872Z,17.46
2019-05-22T15:01:55.697Z,17.91
2019-05-22T15:04:30.519Z,17.92
2019-05-22T15:07:04.923Z,18.25
2019-05-22T15:09:38.928Z,17.99
2019-05-22T15:12:13.127Z,17.66
2019-05-22T15:14:47.081Z,17.93
2019-05-22T15:17:32.198Z,17.72
2019-05-22T15:19:57.593Z,17.88
2019-05-22T15:22:34.076Z,18.03
2019-05-22T15:25:10.046Z,18.01
2019-05-22T15:27:46.245Z,17.48
2019-05-22T15:30:21.808Z,17.60
2019-05-22T15:32:57.867Z,17.49
2019-05-22T15:35:33.758Z,17.78
2019-05-22T15:38:10.936Z,18.20
2019-05-22T15:40:46.657Z,17.90
2019-05-22T15:43:21.272Z,18.00
2019-05-22T15:45:56.424Z,17.94
2019-05-22T15:48:33.670Z,17.82
2019-05-22T15:51:10.252Z,18.26
2019-05-22T15:53:47.133Z,18.43
2019-05-22T15:56:22.486Z,18.36
2019-05-22T15:58:58.316Z,18.41
2019-05-22T16:01:37.053Z,18.31
2019-05-22T16:04:15.099Z,18.31
2019-05-22T16:06:51.685Z,18.29
2019-05-22T16:09:29.759Z,18.48
2019-05-22T16:12:06.597Z,18.38
2019-05-22T16:14:42.004Z,18.27
2019-05-22T16:17:18.948Z,18.37
2019-05-22T16:19:54.742Z,18.34
2019-05-22T16:22:31.086Z,18.33
2019-05-22T16:25:06.494Z,18.20
2019-05-22T16:27:43.349Z,18.26
2019-05-22T16:30:18.717Z,18.31
2019-05-22T16:32:56.347Z,18.29
2019-05-22T16:35:31.992Z,18.14
2019-05-22T16:38:08.408Z,17.92
2019-05-22T16:40:45.719Z,18.04
2019-05-22T16:43:22.742Z,18.14
2019-05-22T16:45:57.793Z,18.22
2019-05-22T16:48:33.993Z,18.06
2019-05-22T16:51:12.078Z,18.02
2019-05-22T16:53:53.838Z,17.90
2019-05-22T16:56:29.227Z,18.00
2019-05-22T16:59:05.229Z,18.00
2019-05-22T17:01:56.830Z,18.09
2019-05-22T17:04:16.307Z,17.83
2019-05-22T17:06:50.957Z,17.55
2019-05-22T17:09:28.499Z,17.64
2019-05-22T17:12:06.138Z,17.50
2019-05-22T17:14:40.841Z,17.47
2019-05-22T17:17:18.879Z,17.47
2019-05-22T17:19:53.635Z,17.30
2019-05-22T17:22:29.422Z,17.18
2019-05-22T17:25:05.317Z,17.24
2019-05-22T17:27:41.361Z,17.14
2019-05-22T17:30:23.327Z,16.97
2019-05-22T17:32:59.611Z,17.01
2019-05-22T17:35:35.251Z,17.07
2019-05-22T17:38:10.310Z,16.87
2019-05-22T17:40:45.894Z,16.75
2019-05-22T17:43:24.035Z,16.57
2019-05-22T17:45:59.080Z,16.52
2019-05-22T17:48:35.289Z,16.49
2019-05-22T17:51:10.695Z,16.49
2019-05-22T17:53:46.312Z,16.37
2019-05-22T17:56:20.718Z,16.36
2019-05-22T17:58:54.986Z,16.19
2019-05-22T18:01:29.852Z,16.15
2019-05-22T18:04:04.729Z,16.03
2019-05-22T18:06:41.497Z,16.05
2019-05-22T18:09:16.459Z,16.06
2019-05-22T18:11:53.539Z,15.99
2019-05-22T18:14:28.491Z,15.90
2019-05-22T18:17:04.418Z,15.77
2019-05-22T18:19:38.498Z,15.67
2019-05-22T18:22:15.034Z,15.55
2019-05-22T18:24:49.818Z,15.51
2019-05-22T18:27:25.434Z,15.36
2019-05-22T18:29:59.864Z,15.30
2019-05-22T18:32:38.312Z,15.19
2019-05-22T18:35:24.760Z,15.16
2019-05-22T18:38:04.678Z,15.11
2019-05-22T18:40:38.947Z,14.90
2019-05-22T18:43:18.937Z,14.80
2019-05-22T18:45:53.902Z,14.69
2019-05-22T18:48:33.098Z,14.70
2019-05-22T18:51:09.176Z,14.57
2019-05-22T18:53:43.583Z,14.63
2019-05-22T18:56:20.570Z,14.51
2019-05-22T18:58:57.530Z,14.37
2019-05-22T19:01:37.335Z,14.24
2019-05-22T19:04:15.996Z,14.15
2019-05-22T19:06:55.802Z,14.11
2019-05-22T19:09:32.067Z,14.00
2019-05-22T19:12:09.334Z,13.91
2019-05-22T19:14:47.125Z,13.77
2019-05-22T19:17:22.991Z,13.68
2019-05-22T19:20:41.917Z,13.58
2019-05-22T19:23:16.864Z,13.50
2019-05-22T19:25:53.864Z,13.38
2019-05-22T19:28:42.271Z,13.33
2019-05-22T19:31:04.113Z,13.22
2019-05-22T19:33:40.901Z,13.13
2019-05-22T19:36:16.732Z,13.07
2019-05-22T19:38:52.680Z,12.99
2019-05-22T19:41:29.167Z,12.87
2019-05-22T19:44:03.589Z,12.82
2019-05-22T19:46:39.837Z,12.73
2019-05-22T19:49:14.953Z,12.62
2019-05-22T19:51:51.901Z,12.48
2019-05-22T19:54:26.121Z,12.43
2019-05-22T19:56:59.955Z,12.36
2019-05-22T19:59:35.825Z,12.28
2019-05-22T20:02:12.526Z,12.21
2019-05-22T20:04:47.299Z,12.17
2019-05-22T20:07:22.667Z,12.09
2019-05-22T20:09:58.984Z,12.03
2019-05-22T20:12:34.493Z,11.95
2019-05-22T20:15:10.471Z,11.92
2019-05-22T20:17:44.957Z,11.87
2019-05-22T20:20:21.000Z,11.81
2019-05-22T20:22:55.458Z,11.75
2019-05-22T20:25:31.181Z,11.70
2019-05-22T20:28:08.098Z,11.65
2019-05-22T20:30:44.872Z,11.61
2019-05-22T20:33:20.560Z,11.51
2019-05-22T20:35:56.776Z,11.42
2019-05-22T20:38:32.820Z,11.36
2019-05-22T20:41:08.917Z,11.25
2019-05-22T20:43:50.151Z,11.14
2019-05-22T20:46:25.155Z,11.02
2019-05-22T20:49:02.474Z,10.99
2019-05-22T20:51:38.615Z,10.93
2019-05-22T20:54:15.370Z,10.88
2019-05-22T20:56:53.403Z,10.88
2019-05-22T20:59:32.489Z,10.87
2019-05-22T21:02:08.899Z,10.72
2019-05-22T21:04:44.080Z,10.69
2019-05-22T21:07:23.381Z,10.63
2019-05-22T21:09:58.128Z,10.55
2019-05-22T21:12:35.882Z,10.48
2019-05-22T21:15:10.608Z,10.47
2019-05-22T21:17:45.796Z,10.45
2019-05-22T21:20:23.386Z,10.45
2019-05-22T21:22:57.901Z,10.40
2019-05-22T21:25:32.245Z,10.36
2019-05-22T21:28:06.579Z,10.28
2019-05-22T21:30:41.714Z,10.22
2019-05-22T21:33:16.112Z,10.25
2019-05-22T21:35:51.036Z,10.18
2019-05-22T21:38:27.352Z,10.15
2019-05-22T21:41:01.357Z,10.15
2019-05-22T21:43:35.381Z,10.15
2019-05-22T21:46:12.538Z,10.12
2019-05-22T21:48:48.788Z,10.03
2019-05-22T21:51:24.286Z,9.96
2019-05-22T21:53:59.417Z,9.94
2019-05-22T21:56:34.390Z,9.91
2019-05-22T21:59:09.187Z,9.87
2019-05-22T22:01:59.002Z,9.83
2019-05-22T22:04:37.105Z,9.79
2019-05-22T22:07:14.188Z,9.71
2019-05-22T22:09:50.356Z,9.67
2019-05-22T22:12:25.809Z,9.66
2019-05-22T22:15:00.198Z,9.69
2019-05-22T22:17:38.228Z,9.75
2019-05-22T22:20:13.046Z,9.75
2019-05-22T22:22:49.205Z,9.78
2019-05-22T22:25:25.070Z,9.83
2019-05-22T22:27:58.949Z,9.80
2019-05-22T22:30:42.408Z,9.86
2019-05-22T22:33:19.755Z,9.84
2019-05-22T22:35:56.360Z,9.79
2019-05-22T22:38:31.007Z,9.66
2019-05-22T22:41:07.599Z,9.64
2019-05-22T22:43:43.324Z,9.58
2019-05-22T22:46:30.635Z,9.59
2019-05-22T22:49:06.188Z,9.63
2019-05-22T22:51:41.154Z,9.65
2019-05-22T22:54:16.878Z,9.66
2019-05-22T22:56:50.778Z,9.68
2019-05-22T22:59:25.439Z,9.66
2019-05-22T23:02:01.995Z,9.61
2019-05-22T23:04:38.738Z,9.54
2019-05-22T23:07:15.529Z,9.49
2019-05-22T23:09:50.274Z,9.43
2019-05-22T23:12:26.402Z,9.48
2019-05-22T23:15:02.202Z,9.46
2019-05-22T23:17:39.096Z,9.41
2019-05-22T23:20:10.097Z,9.44
2019-05-22T23:22:41.856Z,9.33
2019-05-22T23:25:19.672Z,9.27
2019-05-22T23:27:56.090Z,9.26
2019-05-22T23:30:31.748Z,9.21
2019-05-22T23:33:06.727Z,9.15
2019-05-22T23:35:41.431Z,9.11
2019-05-22T23:38:17.929Z,8.96
2019-05-22T23:40:52.530Z,8.95
2019-05-22T23:43:28.163Z,8.90
2019-05-22T23:46:04.216Z,8.76
2019-05-22T23:48:41.013Z,8.79
2019-05-22T23:51:16.799Z,8.76
2019-05-22T23:53:50.759Z,8.84
2019-05-22T23:56:26.693Z,8.80
2019-05-22T23:59:04.257Z,8.77
